Hovedside
METAR-TAF:

METAR-TAF

Lufthavner :

Tillamook, Oregon, USA

breddegrad: 45-25-06N, lengdegrad: 123-48-52W, høyde over havet: 11 m

Gjeldene værobservasjon

Denne rapporten ble laget for 33 minutter siden, klokken 22:15 UTC
Vind 12 kt fra Vest-nordvest med vindkast opp mot 19 kt
Temperatur 20°C
Luftfuktighet 56%
Trykk 1025 hPa
Sikt: 16.1 km
Skyfri himmel

METAR: KTMK 172215Z AUTO 29012G19KT 10SM CLR 20/11 A3028 RMK AO2

Tid: 15:48 (22:48 UTC)


TAF: fraværende

Værobservasjoner og værvarsel for over 4000 flyplasser (METAR- og TAF-rapporter).

Tilgjengelige stasjoner er representert av de røde og gule prikkene på kartet.

Hold musepekeren over prikken for å se navnet på stasjonen.

Klikk så for å se værobservasjoner og -varsler.

For å forandre kartet kan du klikke på den grønne knappen med svart kryss for å zoome inn, på den grønne knappen med strek for å zoome ut, eller på de grønne pilene for å se tilstøtende kart.


METAR-TAF: